Time;durP1;ratioP1;P1;durP2;ratioP2;P2;SDS_P1;SDS_P2;PMS_P1;PMS_P2;Temp;Humidity;BMP_temperature;BMP_pressure;BME280_temperature;BME280_humidity;BME280_pressure;Samples;Min_cycle;Max_cycle;Signal;HPM_P1;HPM_P2
2022/09/26 00:00:15;;;;;;;6.18;5.40;;;;;;;10.90;97.87;100868.97;5074212;28;20111;-59
2022/09/26 00:02:41;;;;;;;8.50;5.55;;;;;;;11.01;98.51;100886.25;5074617;28;20040;-57
2022/09/26 00:05:09;;;;;;;8.63;5.75;;;;;;;11.01;98.44;100880.16;5074256;28;20088;-59
2022/09/26 00:07:34;;;;;;;8.98;5.72;;;;;;;10.97;98.70;100874.09;5074406;28;20038;-58
2022/09/26 00:09:59;;;;;;;8.43;5.50;;;;;;;10.98;98.60;100867.97;5074575;28;20403;-59
2022/09/26 00:12:25;;;;;;;8.18;5.50;;;;;;;11.04;98.52;100864.41;5074079;28;20105;-59
2022/09/26 00:14:50;;;;;;;9.50;5.80;;;;;;;11.02;98.71;100860.94;5074166;28;20449;-59
2022/09/26 00:17:15;;;;;;;9.27;5.72;;;;;;;10.98;98.56;100848.78;5073809;28;20054;-59
2022/09/26 00:19:40;;;;;;;9.18;5.63;;;;;;;11.02;98.78;100845.22;5074026;28;20039;-59
2022/09/26 00:22:06;;;;;;;12.02;5.47;;;;;;;10.97;98.54;100841.81;5074068;28;20458;-59
2022/09/26 00:24:31;;;;;;;9.10;5.90;;;;;;;11.05;98.84;100834.72;5057157;28;20047;-59
2022/09/26 00:26:56;;;;;;;8.52;5.88;;;;;;;10.98;98.97;100828.69;5054238;28;20021;-59
2022/09/26 00:29:21;;;;;;;8.77;5.32;;;;;;;11.00;98.96;100829.53;5054120;28;20124;-60
2022/09/26 00:31:48;;;;;;;9.32;5.90;;;;;;;11.01;98.60;100828.66;5054078;28;20040;-58
2022/09/26 00:34:16;;;;;;;14.20;6.15;;;;;;;11.00;98.94;100828.69;5053682;28;20144;-59
2022/09/26 00:36:41;;;;;;;10.82;5.85;;;;;;;10.98;99.00;100812.13;5053336;28;20352;-58
2022/09/26 00:39:09;;;;;;;7.38;6.15;;;;;;;10.95;99.33;100813.03;5053682;28;20029;-59
2022/09/26 00:41:36;;;;;;;9.02;6.10;;;;;;;10.95;99.37;100807.78;5053588;28;20040;-59
2022/09/26 00:44:01;;;;;;;7.63;6.07;;;;;;;10.97;99.03;100813.00;5053350;28;20033;-58
2022/09/26 00:46:41;;;;;;;8.52;5.90;;;;;;;10.93;99.12;100809.56;5053683;28;20047;-58
2022/09/26 00:49:22;;;;;;;10.13;6.35;;;;;;;11.04;98.94;100809.41;5052147;28;20135;-58
2022/09/26 00:51:55;;;;;;;9.80;6.07;;;;;;;11.05;98.98;100806.78;5053420;28;20048;-58
2022/09/26 00:54:21;;;;;;;9.00;5.70;;;;;;;11.06;98.66;100805.03;5054170;28;20060;-59
2022/09/26 00:56:51;;;;;;;6.70;5.70;;;;;;;11.10;98.47;100801.44;5053348;28;20041;-59
2022/09/26 00:59:34;;;;;;;8.40;5.80;;;;;;;11.09;98.03;100795.34;5053306;28;20033;-59
2022/09/26 01:02:00;;;;;;;10.45;5.57;;;;;;;11.05;97.85;100779.72;5053553;28;20032;-58
2022/09/26 01:04:27;;;;;;;9.40;5.68;;;;;;;11.10;98.27;100778.72;5053488;28;20032;-60
2022/09/26 01:06:57;;;;;;;8.45;5.45;;;;;;;11.16;97.81;100777.78;5053456;28;20384;-59
2022/09/26 01:09:22;;;;;;;10.40;5.10;;;;;;;11.19;97.36;100766.38;5053152;28;20082;-59
2022/09/26 01:11:47;;;;;;;6.82;5.45;;;;;;;11.15;98.08;100761.19;5053423;28;20075;-58
2022/09/26 01:14:13;;;;;;;8.20;5.35;;;;;;;11.19;97.54;100756.78;5053226;28;20029;-58
2022/09/26 01:16:41;;;;;;;7.30;5.22;;;;;;;11.24;97.74;100749.72;5053381;28;20451;-59
2022/09/26 01:19:29;;;;;;;6.13;4.38;;;;;;;11.25;97.15;100750.56;5052983;28;20459;-58
2022/09/26 01:22:31;;;;;;;10.43;5.15;;;;;;;11.26;97.35;100745.28;5052853;28;20122;-59
2022/09/26 01:25:34;;;;;;;9.32;5.00;;;;;;;11.31;96.42;100743.47;5052863;28;20033;-58
2022/09/26 01:28:27;;;;;;;6.28;4.45;;;;;;;11.26;97.29;100737.44;5053004;28;20434;-58
2022/09/26 01:31:19;;;;;;;10.05;4.95;;;;;;;11.27;97.07;100733.06;5052689;28;20036;-58
2022/09/26 01:34:00;;;;;;;11.68;5.20;;;;;;;11.28;96.29;100717.31;5052931;28;20108;-58
2022/09/26 01:36:43;;;;;;;7.50;4.82;;;;;;;11.28;96.71;100705.97;5052522;28;20048;-58
2022/09/26 01:39:20;;;;;;;8.73;4.82;;;;;;;11.25;96.66;100704.28;5052607;28;20032;-59
2022/09/26 01:42:14;;;;;;;5.85;4.45;;;;;;;11.26;96.77;100695.50;5052495;28;20044;-59
2022/09/26 01:45:16;;;;;;;8.80;4.75;;;;;;;11.28;96.87;100700.72;5051982;28;20112;-58
2022/09/26 01:47:49;;;;;;;10.35;4.93;;;;;;;11.25;96.32;100690.34;5052041;28;20077;-58
2022/09/26 01:50:23;;;;;;;9.05;4.43;;;;;;;11.22;96.30;100682.53;5052620;28;20368;-58
2022/09/26 01:52:58;;;;;;;7.97;4.35;;;;;;;11.24;96.41;100672.88;5052331;28;20341;-60
2022/09/26 01:55:29;;;;;;;6.53;4.10;;;;;;;11.22;96.36;100674.66;5052074;28;20029;-58
2022/09/26 01:58:08;;;;;;;8.60;4.10;;;;;;;11.18;96.56;100663.38;5052167;28;20083;-59
2022/09/26 02:00:36;;;;;;;9.63;4.38;;;;;;;11.12;95.86;100658.25;5055799;28;20371;-59
2022/09/26 02:03:05;;;;;;;7.03;4.32;;;;;;;11.11;95.99;100652.13;5056111;28;20044;-58
2022/09/26 02:05:54;;;;;;;8.07;3.67;;;;;;;11.12;96.13;100660.88;5056155;28;20032;-59
2022/09/26 02:08:29;;;;;;;5.72;4.30;;;;;;;11.06;95.60;100640.03;5056311;28;20059;-59
2022/09/26 02:11:01;;;;;;;8.02;3.78;;;;;;;11.03;95.04;100642.72;5056126;28;20032;-59
2022/09/26 02:13:36;;;;;;;5.45;3.70;;;;;;;11.02;94.61;100635.75;5056183;28;20025;-59
2022/09/26 02:16:08;;;;;;;8.55;4.03;;;;;;;11.02;94.52;100628.75;5056103;28;20451;-58
2022/09/26 02:18:41;;;;;;;7.90;3.50;;;;;;;10.96;95.42;100628.88;5055983;28;20047;-59
2022/09/26 02:21:20;;;;;;;9.75;3.90;;;;;;;11.01;94.70;100626.16;5056255;28;20052;-59
2022/09/26 02:23:52;;;;;;;6.90;3.55;;;;;;;10.98;94.83;100620.97;5055905;28;20148;-59
2022/09/26 02:26:18;;;;;;;6.82;3.72;;;;;;;11.01;94.88;100613.94;5056293;28;20726;-59
2022/09/26 02:28:45;;;;;;;6.80;3.58;;;;;;;11.02;95.20;100612.19;5056223;28;20029;-58
2022/09/26 02:31:14;;;;;;;9.18;3.97;;;;;;;11.02;94.94;100607.81;5056389;28;20032;-59
2022/09/26 02:33:39;;;;;;;5.70;3.88;;;;;;;11.11;93.57;100609.38;5056022;28;20033;-59
2022/09/26 02:36:09;;;;;;;6.78;3.50;;;;;;;11.04;94.36;100597.31;5056415;28;20063;-57
2022/09/26 02:38:36;;;;;;;7.43;3.60;;;;;;;10.99;94.89;100588.66;5056155;28;20037;-58
2022/09/26 02:41:38;;;;;;;6.63;4.25;;;;;;;11.01;94.49;100594.75;5056041;28;20037;-59
2022/09/26 02:44:40;;;;;;;6.88;3.63;;;;;;;11.00;95.04;100591.25;5056060;28;20040;-60
2022/09/26 02:47:17;;;;;;;8.52;3.65;;;;;;;11.01;94.31;100590.38;5055995;28;20021;-60
2022/09/26 02:50:10;;;;;;;6.10;3.38;;;;;;;10.91;94.61;100567.03;5055739;28;20040;-58
2022/09/26 02:52:49;;;;;;;7.13;3.40;;;;;;;11.08;93.46;100576.25;5055677;28;20171;-58
2022/09/26 02:55:21;;;;;;;13.02;3.88;;;;;;;11.00;94.22;100575.56;5056124;28;20029;-59
2022/09/26 02:58:34;;;;;;;7.22;3.60;;;;;;;11.00;93.72;100569.47;5055968;28;20032;-59
2022/09/26 03:01:13;;;;;;;7.28;3.53;;;;;;;11.08;92.42;100563.16;5042894;28;20120;-59
2022/09/26 03:03:49;;;;;;;7.47;3.72;;;;;;;11.00;93.10;100557.22;5055730;28;20055;-58
2022/09/26 03:06:17;;;;;;;5.35;3.03;;;;;;;10.95;93.37;100547.72;5055719;28;20029;-59
2022/09/26 03:08:48;;;;;;;8.05;3.40;;;;;;;10.96;93.15;100545.09;5055324;28;20356;-59
2022/09/26 03:11:18;;;;;;;7.78;3.05;;;;;;;10.98;92.87;100547.66;5054546;28;20837;-59
2022/09/26 03:13:46;;;;;;;7.18;3.42;;;;;;;11.02;92.10;100544.09;5055618;28;20044;-58
2022/09/26 03:16:13;;;;;;;4.05;3.00;;;;;;;11.02;92.35;100541.50;5055807;28;20504;-58
2022/09/26 03:18:50;;;;;;;6.25;2.90;;;;;;;11.02;91.41;100536.25;5055882;28;20044;-58
2022/09/26 03:21:16;;;;;;;9.95;3.10;;;;;;;10.97;92.35;100527.63;5055872;28;20102;-59
2022/09/26 03:23:41;;;;;;;6.20;2.80;;;;;;;10.99;91.55;100534.56;5055374;28;20515;-59
2022/09/26 03:26:10;;;;;;;7.78;2.80;;;;;;;11.01;91.24;100526.66;5055175;28;20044;-59
2022/09/26 03:28:36;;;;;;;6.25;3.10;;;;;;;10.97;90.97;100504.91;5055465;28;20068;-58
2022/09/26 03:31:01;;;;;;;5.28;2.47;;;;;;;10.99;91.33;100516.22;5055821;28;20057;-59
2022/09/26 03:33:26;;;;;;;7.78;2.88;;;;;;;11.00;91.29;100510.09;5055783;28;20041;-59
2022/09/26 03:35:52;;;;;;;5.38;2.63;;;;;;;11.00;91.58;100509.22;5055568;28;20033;-59
2022/09/26 03:38:17;;;;;;;10.18;3.15;;;;;;;11.01;91.57;100496.13;5055867;28;20325;-59
2022/09/26 03:40:43;;;;;;;5.72;2.63;;;;;;;10.99;90.57;100492.66;5055873;28;20040;-59
2022/09/26 03:43:09;;;;;;;8.30;2.60;;;;;;;11.02;90.79;100484.75;5056408;28;20079;-58
2022/09/26 03:45:35;;;;;;;3.83;2.42;;;;;;;11.02;91.37;100476.03;5056948;28;20033;-58
2022/09/26 03:48:01;;;;;;;7.05;2.88;;;;;;;10.99;90.72;100473.47;5055506;28;20801;-57
2022/09/26 03:50:27;;;;;;;6.18;2.72;;;;;;;10.97;91.06;100470.03;5055776;28;20037;-59
2022/09/26 03:52:52;;;;;;;6.03;2.80;;;;;;;10.90;91.74;100479.78;5055391;28;20037;-60
2022/09/26 03:55:18;;;;;;;5.93;2.90;;;;;;;10.89;92.54;100471.94;5055484;28;20036;-57
2022/09/26 03:57:43;;;;;;;10.77;2.53;;;;;;;10.78;93.11;100459.94;5055362;28;20036;-58
2022/09/26 04:00:09;;;;;;;10.25;3.10;;;;;;;10.88;93.59;100468.47;5055127;28;20128;-58
2022/09/26 04:02:34;;;;;;;10.05;2.97;;;;;;;10.87;93.59;100458.91;5055203;28;20029;-59
2022/09/26 04:05:00;;;;;;;8.05;3.10;;;;;;;10.84;94.41;100447.63;5055088;28;20060;-58
2022/09/26 04:07:25;;;;;;;7.53;3.22;;;;;;;10.81;94.49;100446.78;5055306;28;20341;-58
2022/09/26 04:09:51;;;;;;;7.43;2.90;;;;;;;10.84;95.22;100447.63;5055531;28;20052;-59
2022/09/26 04:12:16;;;;;;;5.95;2.95;;;;;;;10.78;95.19;100440.75;5055058;28;20033;-59
2022/09/26 04:14:44;;;;;;;7.57;3.40;;;;;;;10.82;95.57;100438.03;5055299;28;20428;-58
2022/09/26 04:17:10;;;;;;;5.93;3.00;;;;;;;10.76;96.07;100427.69;5055349;28;20035;-58
2022/09/26 04:19:36;;;;;;;5.03;2.92;;;;;;;10.74;97.42;100415.53;5055815;28;20036;-59
2022/09/26 04:22:01;;;;;;;4.82;2.67;;;;;;;10.73;95.93;100417.31;5056425;28;20024;-57
2022/09/26 04:24:26;;;;;;;7.32;3.45;;;;;;;10.79;95.70;100411.06;5055908;28;20040;-58
2022/09/26 04:26:53;;;;;;;6.85;2.85;;;;;;;10.74;95.37;100408.53;5056216;28;20420;-58
2022/09/26 04:29:18;;;;;;;5.90;2.75;;;;;;;10.69;96.44;100402.56;5056500;28;20035;-59
2022/09/26 04:31:44;;;;;;;8.35;3.20;;;;;;;10.68;96.49;100390.38;5056722;28;20029;-59
2022/09/26 04:34:10;;;;;;;7.43;2.75;;;;;;;10.72;96.63;100386.78;5055863;28;20116;-59
2022/09/26 04:36:35;;;;;;;5.95;2.78;;;;;;;10.72;96.12;100397.25;5056191;28;20036;-58
2022/09/26 04:39:01;;;;;;;7.18;3.10;;;;;;;10.69;95.87;100380.75;5055169;28;20448;-58
2022/09/26 04:41:28;;;;;;;7.25;2.72;;;;;;;10.69;95.84;100383.38;5052898;28;20051;-57
2022/09/26 04:43:54;;;;;;;8.75;2.60;;;;;;;10.67;95.16;100372.94;5052567;28;20037;-58
2022/09/26 04:46:22;;;;;;;7.15;3.08;;;;;;;10.68;95.76;100369.44;5052808;28;20041;-58
2022/09/26 04:48:48;;;;;;;6.03;2.90;;;;;;;10.69;95.07;100357.22;5052403;28;20439;-57
2022/09/26 04:51:16;;;;;;;7.93;3.08;;;;;;;10.69;95.53;100345.00;5052731;28;20041;-57
2022/09/26 04:53:41;;;;;;;6.93;3.00;;;;;;;10.69;94.66;100326.66;5052610;28;20029;-58
2022/09/26 04:56:09;;;;;;;4.95;2.67;;;;;;;10.71;95.28;100337.09;5052567;28;20036;-59
2022/09/26 04:58:36;;;;;;;6.07;2.70;;;;;;;10.67;95.25;100325.84;5052335;28;20032;-58
2022/09/26 05:01:07;;;;;;;8.80;2.80;;;;;;;10.66;94.68;100321.50;5052279;28;20054;-57
2022/09/26 05:03:35;;;;;;;6.47;2.90;;;;;;;10.63;95.55;100313.72;5052454;28;20045;-58
2022/09/26 05:06:00;;;;;;;5.53;2.92;;;;;;;10.66;95.39;100313.66;5052544;28;20109;-56
2022/09/26 05:08:27;;;;;;;7.47;3.13;;;;;;;10.66;95.18;100318.88;5052419;28;20040;-58
2022/09/26 05:10:54;;;;;;;8.55;3.05;;;;;;;10.66;95.77;100315.41;5052522;28;20040;-57
2022/09/26 05:13:20;;;;;;;7.47;3.28;;;;;;;10.65;95.95;100311.91;5052374;28;20032;-58
2022/09/26 05:15:47;;;;;;;9.18;3.13;;;;;;;10.65;95.90;100283.13;5059275;28;20052;-57
2022/09/26 05:18:12;;;;;;;7.07;3.08;;;;;;;10.57;96.42;100269.34;5052065;28;20039;-58
2022/09/26 05:20:38;;;;;;;6.00;3.28;;;;;;;10.64;96.86;100270.94;5052411;28;20040;-59
2022/09/26 05:23:05;;;;;;;5.45;2.97;;;;;;;10.62;96.19;100269.25;5052384;28;20033;-60
2022/09/26 05:28:20;;;;;;;7.18;3.40;;;;;;;10.54;97.75;100273.81;5052586;28;20114;-60
2022/09/26 05:30:46;;;;;;;9.23;3.58;;;;;;;10.57;97.04;100273.72;5053381;28;20036;-59
2022/09/26 05:33:12;;;;;;;9.38;3.75;;;;;;;10.53;97.84;100259.88;5053426;28;20036;-60
2022/09/26 05:35:38;;;;;;;8.02;3.88;;;;;;;10.56;96.59;100265.03;5052429;28;20119;-61
2022/09/26 05:38:03;;;;;;;9.63;3.75;;;;;;;10.56;97.55;100269.41;5053891;28;20037;-60
2022/09/26 05:43:14;;;;;;;9.80;4.07;;;;;;;10.63;96.89;100263.13;5053099;28;20056;-60
2022/09/26 05:45:39;;;;;;;12.38;3.78;;;;;;;10.58;97.53;100252.75;5052256;28;20037;-60
2022/09/26 05:48:05;;;;;;;9.63;4.07;;;;;;;10.60;97.48;100265.81;5050693;28;20444;-61
2022/09/26 05:50:32;;;;;;;9.02;4.20;;;;;;;10.62;97.08;100261.41;5051400;28;20064;-60
2022/09/26 05:52:59;;;;;;;8.05;3.95;;;;;;;10.63;97.92;100257.91;5051634;28;20492;-59
2022/09/26 05:55:26;;;;;;;8.57;3.85;;;;;;;10.58;98.03;100258.00;5051266;28;20108;-60
2022/09/26 05:57:53;;;;;;;10.55;3.80;;;;;;;10.61;98.01;100252.69;5051559;28;20081;-61
2022/09/26 06:00:19;;;;;;;10.60;3.65;;;;;;;10.62;98.18;100256.19;5051340;28;20738;-59
2022/09/26 06:02:44;;;;;;;7.07;4.03;;;;;;;10.57;98.33;100247.56;5050943;28;20036;-60
2022/09/26 06:05:11;;;;;;;11.68;4.00;;;;;;;10.59;98.59;100243.16;5051537;28;20037;-60
2022/09/26 06:07:36;;;;;;;9.20;4.03;;;;;;;10.59;98.94;100243.16;5051359;28;20029;-60
2022/09/26 06:10:05;;;;;;;9.27;4.47;;;;;;;10.60;98.53;100237.91;5051345;28;20414;-61
2022/09/26 06:12:30;;;;;;;9.63;4.10;;;;;;;10.59;99.71;100228.31;5051406;28;20441;-60
2022/09/26 06:14:56;;;;;;;9.25;4.35;;;;;;;10.59;98.98;100219.59;5051272;28;20111;-60
2022/09/26 06:17:22;;;;;;;9.38;4.40;;;;;;;10.61;98.08;100213.44;5051428;28;20079;-57
2022/09/26 06:19:48;;;;;;;11.23;4.78;;;;;;;10.63;98.79;100208.19;5057730;28;20036;-60
2022/09/26 06:22:13;;;;;;;9.48;3.70;;;;;;;10.61;99.11;100191.66;5070902;28;20037;-59
2022/09/26 06:24:38;;;;;;;9.10;3.97;;;;;;;10.67;98.45;100194.13;5071170;28;20476;-61
2022/09/26 06:27:04;;;;;;;8.77;4.07;;;;;;;10.71;97.36;100174.84;5071024;28;20097;-60
2022/09/26 06:29:29;;;;;;;8.18;3.90;;;;;;;10.70;97.30;100175.75;5071439;28;20039;-60
2022/09/26 06:31:54;;;;;;;6.95;3.40;;;;;;;10.71;96.60;100160.03;5064960;28;20037;-59
2022/09/26 06:34:20;;;;;;;8.48;3.67;;;;;;;10.76;95.88;100155.50;5051608;28;20033;-60
2022/09/26 06:36:45;;;;;;;8.40;3.65;;;;;;;10.75;96.84;100155.53;5051049;28;20067;-59
2022/09/26 06:39:11;;;;;;;9.30;3.58;;;;;;;10.80;95.80;100143.22;5050886;28;20036;-59
2022/09/26 06:41:36;;;;;;;7.10;3.40;;;;;;;10.78;96.55;100150.22;5051134;28;20112;-59
2022/09/26 06:44:01;;;;;;;6.60;2.83;;;;;;;10.86;95.51;100148.28;5067098;28;20024;-59
2022/09/26 06:46:30;;;;;;;8.35;3.08;;;;;;;10.90;95.78;100138.63;5074132;28;20109;-60
2022/09/26 06:48:55;;;;;;;6.47;3.15;;;;;;;10.89;95.90;100124.66;5074163;28;20123;-58
2022/09/26 06:51:21;;;;;;;5.93;2.90;;;;;;;10.97;96.35;100119.22;5074628;28;20131;-58
2022/09/26 06:53:46;;;;;;;6.53;2.80;;;;;;;10.97;94.77;100096.50;5074767;28;20371;-60
2022/09/26 06:56:12;;;;;;;8.07;2.92;;;;;;;10.87;95.59;100087.19;5074453;28;20032;-59
2022/09/26 06:58:38;;;;;;;5.47;2.90;;;;;;;10.99;95.59;100094.72;5074463;28;20037;-60
2022/09/26 07:01:05;;;;;;;6.07;2.70;;;;;;;10.97;95.93;100091.28;5074430;28;20050;-59
2022/09/26 07:03:31;;;;;;;8.30;2.97;;;;;;;11.02;95.22;100101.63;5074611;28;20033;-59
2022/09/26 07:05:56;;;;;;;6.50;2.83;;;;;;;11.06;94.69;100100.66;5074479;28;20507;-60
2022/09/26 07:08:22;;;;;;;6.65;2.40;;;;;;;11.10;94.50;100086.56;5074133;28;20036;-58
2022/09/26 07:10:47;;;;;;;5.13;2.70;;;;;;;11.17;94.75;100085.50;5074426;28;20128;-60
2022/09/26 07:13:15;;;;;;;7.05;2.50;;;;;;;11.22;93.64;100077.53;5074392;28;20504;-60
2022/09/26 07:15:43;;;;;;;4.68;2.53;;;;;;;11.20;94.51;100074.94;5071909;28;20024;-59
2022/09/26 07:18:09;;;;;;;5.38;2.35;;;;;;;11.23;94.46;100069.63;5073187;28;20472;-59
2022/09/26 07:20:39;;;;;;;4.97;2.60;;;;;;;11.26;93.76;100068.66;5073999;28;20044;-60
2022/09/26 07:23:07;;;;;;;7.20;2.90;;;;;;;11.24;93.97;100053.00;5074101;28;20032;-61
2022/09/26 07:25:33;;;;;;;5.82;2.40;;;;;;;11.31;93.01;100049.28;5074017;28;20043;-60
2022/09/26 07:27:59;;;;;;;4.70;2.30;;;;;;;11.28;93.47;100059.84;5073971;28;20028;-60
2022/09/26 07:30:25;;;;;;;5.45;2.40;;;;;;;11.27;93.18;100055.50;5074060;28;20029;-59
2022/09/26 07:32:50;;;;;;;5.75;2.58;;;;;;;11.14;93.19;100028.81;5073573;28;20040;-58
2022/09/26 07:35:16;;;;;;;7.53;2.50;;;;;;;11.19;93.81;100049.66;5073960;28;20033;-58
2022/09/26 07:37:42;;;;;;;5.15;2.53;;;;;;;11.25;93.50;100054.72;5073726;28;20169;-58
2022/09/26 07:40:08;;;;;;;10.55;3.00;;;;;;;11.26;94.14;100047.69;5073740;28;20032;-59
2022/09/26 07:42:34;;;;;;;6.20;2.38;;;;;;;11.30;93.24;100047.56;5073870;28;20032;-60
2022/09/26 07:44:59;;;;;;;5.28;2.60;;;;;;;11.33;93.63;100047.47;5073665;28;20364;-60
2022/09/26 07:50:15;;;;;;;6.15;2.42;;;;;;;11.37;92.96;100040.41;5073496;28;20142;-61
2022/09/26 07:52:47;;;;;;;7.78;2.63;;;;;;;11.39;93.47;100044.69;5073294;28;20498;-61
2022/09/26 07:55:16;;;;;;;6.90;2.78;;;;;;;11.44;93.48;100044.53;5073686;28;20032;-61
2022/09/26 07:57:41;;;;;;;6.68;2.70;;;;;;;11.43;93.62;100035.81;5073211;28;20040;-60
2022/09/26 08:00:11;;;;;;;8.95;2.55;;;;;;;11.48;93.98;100033.06;5073484;28;20037;-59
2022/09/26 08:02:41;;;;;;;4.93;2.67;;;;;;;11.55;93.43;100033.75;5073782;28;20432;-60
2022/09/26 08:05:08;;;;;;;7.18;2.88;;;;;;;11.52;93.10;100021.59;5073363;28;20032;-59
2022/09/26 08:07:35;;;;;;;7.05;3.08;;;;;;;11.61;92.60;100021.31;5073584;28;20051;-60
2022/09/26 08:10:01;;;;;;;6.55;3.03;;;;;;;11.63;92.72;100006.41;5073321;28;20048;-61
2022/09/26 08:12:28;;;;;;;7.97;2.95;;;;;;;11.64;92.70;100020.34;5073141;28;20849;-60
2022/09/26 08:14:54;;;;;;;4.07;2.05;;;;;;;11.67;92.58;100007.16;5073153;28;20093;-60
2022/09/26 08:17:19;;;;;;;6.53;2.58;;;;;;;11.66;92.62;100006.31;5073241;28;20028;-60
2022/09/26 08:19:45;;;;;;;4.30;2.35;;;;;;;11.67;92.97;100001.91;5073014;28;20028;-60
2022/09/26 08:22:11;;;;;;;8.55;2.70;;;;;;;11.65;92.89;100007.22;5078145;28;20113;-59
2022/09/26 08:24:37;;;;;;;8.15;2.58;;;;;;;11.66;92.90;100008.94;5083781;28;20043;-60
2022/09/26 08:27:03;;;;;;;8.20;2.70;;;;;;;11.68;92.96;100004.50;5072250;28;20075;-60
2022/09/26 08:29:31;;;;;;;5.22;2.38;;;;;;;11.68;92.15;99996.63;5069316;28;20187;-59
2022/09/26 08:31:57;;;;;;;6.15;2.40;;;;;;;11.66;92.50;100005.44;5069036;28;20028;-59
2022/09/26 08:34:22;;;;;;;6.15;2.72;;;;;;;11.57;93.49;100001.38;5070450;28;20093;-60
2022/09/26 08:36:52;;;;;;;9.40;2.78;;;;;;;11.54;94.57;100000.59;5060176;28;20040;-59
2022/09/26 08:39:18;;;;;;;8.05;2.58;;;;;;;11.60;94.06;99998.63;5053325;28;20044;-60
2022/09/26 08:42:00;;;;;;;6.70;2.92;;;;;;;11.58;94.42;99995.22;5062994;28;20037;-59
2022/09/26 08:44:34;;;;;;;5.45;2.58;;;;;;;11.65;94.45;99995.88;5067599;28;20359;-59
2022/09/26 08:47:16;;;;;;;6.47;2.60;;;;;;;11.68;94.77;99993.16;5072652;28;20042;-59
2022/09/26 08:50:10;;;;;;;6.53;2.55;;;;;;;11.76;94.18;99983.34;5071338;28;20041;-59
2022/09/26 08:52:42;;;;;;;8.88;2.55;;;;;;;11.84;93.58;99992.66;5074883;28;20471;-58
2022/09/26 08:55:22;;;;;;;6.22;2.83;;;;;;;11.94;93.31;99992.38;5085617;28;20036;-60
2022/09/26 08:58:04;;;;;;;7.93;2.72;;;;;;;11.91;93.36;99977.59;5065350;28;20028;-60
2022/09/26 09:00:32;;;;;;;7.93;2.80;;;;;;;11.92;93.11;99979.31;5088885;28;20043;-59
2022/09/26 09:03:17;;;;;;;8.23;2.72;;;;;;;11.97;92.63;99976.50;5077613;28;20039;-60
2022/09/26 09:05:52;;;;;;;4.60;2.17;;;;;;;11.99;92.97;99974.69;5084752;28;20228;-62
2022/09/26 09:08:33;;;;;;;8.07;2.72;;;;;;;11.92;94.33;99973.22;5071503;28;20036;-62
2022/09/26 09:11:22;;;;;;;7.53;2.30;;;;;;;11.99;94.37;99972.94;5059097;28;20024;-51
2022/09/26 09:14:05;;;;;;;7.68;2.45;;;;;;;11.97;95.45;99964.25;5030283;28;20286;-52
2022/09/26 09:17:03;;;;;;;5.40;2.80;;;;;;;11.98;95.12;99960.72;5078909;28;20432;-52
2022/09/26 09:19:59;;;;;;;6.47;2.50;;;;;;;12.10;96.23;99962.97;5066321;28;20035;-53
2022/09/26 09:23:02;;;;;;;8.35;2.78;;;;;;;12.17;96.59;99951.34;5075914;28;20032;-50
2022/09/26 09:25:38;;;;;;;7.65;2.75;;;;;;;12.18;98.47;99950.44;5066804;28;20040;-62
2022/09/26 09:28:27;;;;;;;7.43;2.78;;;;;;;12.22;97.91;99940.69;5069782;28;20087;-61
2022/09/26 09:31:02;;;;;;;9.05;3.10;;;;;;;12.16;98.19;99935.66;5070132;28;20459;-61
2022/09/26 09:33:35;;;;;;;10.50;3.03;;;;;;;12.02;99.73;99928.25;5055953;28;20463;-61
2022/09/26 09:36:05;;;;;;;9.75;2.90;;;;;;;12.00;100.00;99923.97;5072316;28;20123;-62
2022/09/26 09:38:33;;;;;;;6.80;3.70;;;;;;;11.99;100.00;99930.13;5087262;28;20036;-61
2022/09/26 09:41:03;;;;;;;6.22;2.80;;;;;;;12.04;100.00;99921.22;5074068;28;20036;-60
2022/09/26 09:43:34;;;;;;;8.57;3.13;;;;;;;12.02;100.00;99906.44;5071482;28;20097;-61
2022/09/26 09:46:10;;;;;;;10.43;3.17;;;;;;;11.97;100.00;99905.72;5071702;28;20079;-61
2022/09/26 09:48:35;;;;;;;9.48;3.22;;;;;;;11.94;100.00;99893.59;5071186;28;20108;-50
2022/09/26 09:51:27;;;;;;;6.18;2.90;;;;;;;12.00;100.00;99901.22;5069763;28;20115;-49
2022/09/26 09:54:37;;;;;;;5.15;3.40;;;;;;;12.04;100.00;99889.75;5072542;28;20037;-48
2022/09/26 09:57:30;;;;;;;8.20;3.45;;;;;;;11.99;100.00;99880.31;5080369;28;20058;-46
2022/09/26 10:00:14;;;;;;;8.25;3.08;;;;;;;12.01;100.00;99881.97;5087883;28;20043;-46
2022/09/26 10:03:01;;;;;;;6.85;3.00;;;;;;;11.98;100.00;99876.81;5068708;28;20446;-47
2022/09/26 10:05:46;;;;;;;8.77;3.28;;;;;;;12.02;100.00;99873.19;5068077;28;20040;-50
2022/09/26 10:08:16;;;;;;;6.20;2.92;;;;;;;12.14;100.00;99875.38;5056691;28;20827;-60
2022/09/26 10:10:56;;;;;;;8.93;3.33;;;;;;;12.22;100.00;99863.78;5062682;28;20036;-50
2022/09/26 10:13:24;;;;;;;6.38;3.55;;;;;;;12.29;100.00;99854.78;5067171;28;20092;-57
2022/09/26 10:16:03;;;;;;;5.50;3.08;;;;;;;12.26;100.00;99858.38;5068264;28;20044;-49
2022/09/26 10:18:30;;;;;;;5.88;3.50;;;;;;;12.28;100.00;99855.69;5069440;28;20033;-51
2022/09/26 10:21:05;;;;;;;8.98;3.28;;;;;;;12.24;100.00;99836.59;5069868;28;20044;-50
2022/09/26 10:23:35;;;;;;;7.72;3.30;;;;;;;12.49;100.00;99860.13;5072554;28;20037;-51
2022/09/26 10:26:06;;;;;;;8.98;3.35;;;;;;;12.53;100.00;99843.38;5075051;28;20035;-52
2022/09/26 10:28:36;;;;;;;8.15;3.17;;;;;;;12.34;100.00;99843.19;5064775;28;20029;-49
2022/09/26 10:31:07;;;;;;;6.95;3.22;;;;;;;12.29;100.00;99849.53;5071152;28;20455;-51
2022/09/26 10:33:35;;;;;;;7.20;3.40;;;;;;;12.20;100.00;99835.84;5065985;28;20043;-51
2022/09/26 10:36:08;;;;;;;6.25;3.08;;;;;;;12.13;100.00;99839.56;5070693;28;20044;-51
2022/09/26 10:40:43;;;;;;;7.30;3.28;;;;;;;12.08;100.00;99830.19;5059333;28;20064;-51
2022/09/26 10:41:38;;;;;;;7.63;3.17;;;;;;;12.02;100.00;99830.38;5072573;28;20051;-51
2022/09/26 10:44:03;;;;;;;11.85;3.92;;;;;;;12.04;100.00;99820.69;5066983;28;20062;-49
2022/09/26 10:46:29;;;;;;;5.32;3.35;;;;;;;12.02;100.00;99814.66;5074971;28;20423;-50
2022/09/26 10:49:01;;;;;;;8.27;3.55;;;;;;;12.02;100.00;99819.91;5074882;28;20064;-51
2022/09/26 10:51:41;;;;;;;5.93;3.63;;;;;;;12.00;100.00;99804.22;5088457;28;20023;-58
2022/09/26 10:54:31;;;;;;;6.47;3.95;;;;;;;12.11;100.00;99811.72;5066211;28;20445;-58
2022/09/26 10:56:58;;;;;;;8.30;3.67;;;;;;;12.13;100.00;99815.97;5074597;28;20029;-57
2022/09/26 10:59:27;;;;;;;9.27;3.75;;;;;;;11.97;100.00;99798.22;5074202;28;20455;-57
2022/09/26 11:01:57;;;;;;;11.07;3.75;;;;;;;12.01;100.00;99807.69;5062647;28;20083;-57
2022/09/26 11:07:28;;;;;;;8.45;4.05;;;;;;;12.01;100.00;99808.56;5061313;28;20055;-57
2022/09/26 11:10:00;;;;;;;9.38;4.05;;;;;;;11.91;100.00;99808.94;5054415;28;20036;-58
2022/09/26 11:12:34;;;;;;;9.52;4.20;;;;;;;11.83;100.00;99802.19;5054418;28;20051;-58
2022/09/26 11:15:10;;;;;;;10.20;4.25;;;;;;;11.96;100.00;99799.13;5054194;28;20047;-57
2022/09/26 11:17:44;;;;;;;7.00;3.88;;;;;;;11.89;100.00;99797.66;5054326;28;20353;-58
2022/09/26 11:20:44;;;;;;;9.05;3.80;;;;;;;11.79;100.00;99786.63;5054465;28;20095;-58
2022/09/26 11:23:43;;;;;;;8.45;4.40;;;;;;;11.67;100.00;99792.28;5055669;28;20037;-58
2022/09/26 11:26:26;;;;;;;6.88;4.30;;;;;;;11.63;100.00;99788.03;5069035;28;20081;-58
2022/09/26 11:29:08;;;;;;;8.85;4.38;;;;;;;11.51;100.00;99786.69;5073979;28;20068;-58
2022/09/26 11:31:39;;;;;;;7.95;4.38;;;;;;;11.58;100.00;99788.22;5073029;28;20064;-58
2022/09/26 11:34:12;;;;;;;6.13;3.75;;;;;;;11.55;100.00;99788.31;5074043;28;20186;-58
2022/09/26 11:36:40;;;;;;;8.75;3.78;;;;;;;11.46;100.00;99778.13;5060473;28;20037;-58
2022/09/26 11:39:24;;;;;;;7.00;4.20;;;;;;;11.39;100.00;99774.88;5053814;28;20060;-58
2022/09/26 11:42:05;;;;;;;11.15;4.05;;;;;;;11.47;100.00;99778.09;5059963;28;20044;-57
2022/09/26 11:44:48;;;;;;;10.07;4.65;;;;;;;11.36;100.00;99769.75;5073682;28;20032;-58
2022/09/26 11:47:38;;;;;;;6.60;3.92;;;;;;;11.49;100.00;99776.28;5073282;28;20472;-58
2022/09/26 11:50:19;;;;;;;10.85;5.00;;;;;;;11.36;100.00;99766.28;5070588;28;20032;-58
2022/09/26 11:53:04;;;;;;;6.28;4.13;;;;;;;11.40;100.00;99768.75;5073807;28;20445;-57
2022/09/26 11:55:44;;;;;;;7.53;3.70;;;;;;;11.50;100.00;99767.50;5073478;28;20048;-58